sensor_id;sensor_type;location;lat;lon;timestamp;temperature;humidity
7942;HTU21D;4016;50.758;7.150;2023-12-20T00:01:33;7.52;118.99
7942;HTU21D;4016;50.758;7.150;2023-12-20T00:06:33;7.56;118.99
7942;HTU21D;4016;50.758;7.150;2023-12-20T00:11:34;7.56;118.99
7942;HTU21D;4016;50.758;7.150;2023-12-20T00:16:34;7.67;118.99
7942;HTU21D;4016;50.758;7.150;2023-12-20T00:21:34;7.69;118.99
7942;HTU21D;4016;50.758;7.150;2023-12-20T00:26:35;7.69;118.99
7942;HTU21D;4016;50.758;7.150;2023-12-20T00:31:35;7.68;118.99
7942;HTU21D;4016;50.758;7.150;2023-12-20T00:36:36;7.60;118.99
7942;HTU21D;4016;50.758;7.150;2023-12-20T00:41:36;7.56;118.99
7942;HTU21D;4016;50.758;7.150;2023-12-20T00:46:37;7.55;118.99
7942;HTU21D;4016;50.758;7.150;2023-12-20T00:51:37;7.72;118.99
7942;HTU21D;4016;50.758;7.150;2023-12-20T00:56:38;7.69;118.99
7942;HTU21D;4016;50.758;7.150;2023-12-20T01:01:38;7.68;118.99
7942;HTU21D;4016;50.758;7.150;2023-12-20T01:06:39;7.72;118.99
7942;HTU21D;4016;50.758;7.150;2023-12-20T01:11:39;7.88;118.99
7942;HTU21D;4016;50.758;7.150;2023-12-20T01:16:39;7.77;118.99
7942;HTU21D;4016;50.758;7.150;2023-12-20T01:21:40;7.71;118.99
7942;HTU21D;4016;50.758;7.150;2023-12-20T01:26:40;7.88;118.99
7942;HTU21D;4016;50.758;7.150;2023-12-20T01:31:41;7.83;118.99
7942;HTU21D;4016;50.758;7.150;2023-12-20T01:36:42;7.63;118.99
7942;HTU21D;4016;50.758;7.150;2023-12-20T01:41:42;7.73;118.99
7942;HTU21D;4016;50.758;7.150;2023-12-20T01:46:43;7.62;118.99
7942;HTU21D;4016;50.758;7.150;2023-12-20T01:51:44;7.55;118.99
7942;HTU21D;4016;50.758;7.150;2023-12-20T01:56:45;7.55;118.99
7942;HTU21D;4016;50.758;7.150;2023-12-20T02:01:45;7.71;118.99
7942;HTU21D;4016;50.758;7.150;2023-12-20T02:06:46;7.62;118.99
7942;HTU21D;4016;50.758;7.150;2023-12-20T02:11:47;7.74;118.99
7942;HTU21D;4016;50.758;7.150;2023-12-20T02:16:47;7.79;118.99
7942;HTU21D;4016;50.758;7.150;2023-12-20T02:21:48;7.79;118.99
7942;HTU21D;4016;50.758;7.150;2023-12-20T02:26:48;7.72;118.99
7942;HTU21D;4016;50.758;7.150;2023-12-20T02:31:49;7.53;118.99
7942;HTU21D;4016;50.758;7.150;2023-12-20T02:36:49;7.43;118.99
7942;HTU21D;4016;50.758;7.150;2023-12-20T02:41:50;7.40;118.99
7942;HTU21D;4016;50.758;7.150;2023-12-20T02:46:50;7.32;118.99
7942;HTU21D;4016;50.758;7.150;2023-12-20T02:51:50;6.91;118.99
7942;HTU21D;4016;50.758;7.150;2023-12-20T02:56:51;6.83;118.99
7942;HTU21D;4016;50.758;7.150;2023-12-20T03:01:51;6.98;118.99
7942;HTU21D;4016;50.758;7.150;2023-12-20T03:06:51;6.80;118.99
7942;HTU21D;4016;50.758;7.150;2023-12-20T03:11:52;6.46;118.99
7942;HTU21D;4016;50.758;7.150;2023-12-20T03:16:52;6.33;118.99
7942;HTU21D;4016;50.758;7.150;2023-12-20T03:21:52;6.27;118.99
7942;HTU21D;4016;50.758;7.150;2023-12-20T03:26:53;6.36;118.99
7942;HTU21D;4016;50.758;7.150;2023-12-20T03:31:54;6.34;118.99
7942;HTU21D;4016;50.758;7.150;2023-12-20T03:36:54;6.45;118.99
7942;HTU21D;4016;50.758;7.150;2023-12-20T03:41:55;6.52;118.99
7942;HTU21D;4016;50.758;7.150;2023-12-20T03:46:55;6.51;118.99
7942;HTU21D;4016;50.758;7.150;2023-12-20T03:51:55;6.41;118.99
7942;HTU21D;4016;50.758;7.150;2023-12-20T03:56:56;6.45;118.99
7942;HTU21D;4016;50.758;7.150;2023-12-20T04:01:56;6.44;118.99
7942;HTU21D;4016;50.758;7.150;2023-12-20T04:06:57;6.45;118.99
7942;HTU21D;4016;50.758;7.150;2023-12-20T04:11:57;6.52;118.99
7942;HTU21D;4016;50.758;7.150;2023-12-20T04:16:57;6.57;118.99
7942;HTU21D;4016;50.758;7.150;2023-12-20T04:21:58;6.66;118.99
7942;HTU21D;4016;50.758;7.150;2023-12-20T04:26:58;6.57;118.99
7942;HTU21D;4016;50.758;7.150;2023-12-20T04:31:59;6.49;118.99
7942;HTU21D;4016;50.758;7.150;2023-12-20T04:36:59;6.64;118.99
7942;HTU21D;4016;50.758;7.150;2023-12-20T04:42:00;6.57;118.99
7942;HTU21D;4016;50.758;7.150;2023-12-20T04:47:00;6.71;118.99
7942;HTU21D;4016;50.758;7.150;2023-12-20T04:52:01;6.56;118.99
7942;HTU21D;4016;50.758;7.150;2023-12-20T04:57:01;6.50;118.99
7942;HTU21D;4016;50.758;7.150;2023-12-20T05:02:02;6.70;118.99
7942;HTU21D;4016;50.758;7.150;2023-12-20T05:07:02;6.53;118.99
7942;HTU21D;4016;50.758;7.150;2023-12-20T05:12:05;6.51;118.99
7942;HTU21D;4016;50.758;7.150;2023-12-20T05:17:06;6.27;118.99
7942;HTU21D;4016;50.758;7.150;2023-12-20T05:22:07;6.21;118.99
7942;HTU21D;4016;50.758;7.150;2023-12-20T05:27:08;6.36;118.99
7942;HTU21D;4016;50.758;7.150;2023-12-20T05:32:08;6.21;118.99
7942;HTU21D;4016;50.758;7.150;2023-12-20T05:37:08;6.25;118.99
7942;HTU21D;4016;50.758;7.150;2023-12-20T05:42:09;6.13;118.99
7942;HTU21D;4016;50.758;7.150;2023-12-20T05:47:09;6.05;118.99
7942;HTU21D;4016;50.758;7.150;2023-12-20T05:52:09;6.16;118.99
7942;HTU21D;4016;50.758;7.150;2023-12-20T05:57:10;6.04;118.99
7942;HTU21D;4016;50.758;7.150;2023-12-20T06:02:10;6.09;118.99
7942;HTU21D;4016;50.758;7.150;2023-12-20T06:07:14;6.07;118.99
7942;HTU21D;4016;50.758;7.150;2023-12-20T06:12:15;6.19;118.99
7942;HTU21D;4016;50.758;7.150;2023-12-20T06:17:15;6.14;118.99
7942;HTU21D;4016;50.758;7.150;2023-12-20T06:22:16;6.11;118.99
7942;HTU21D;4016;50.758;7.150;2023-12-20T06:27:17;6.30;118.99
7942;HTU21D;4016;50.758;7.150;2023-12-20T06:32:17;6.13;118.99
7942;HTU21D;4016;50.758;7.150;2023-12-20T06:37:18;6.44;118.99
7942;HTU21D;4016;50.758;7.150;2023-12-20T06:42:18;6.35;118.99
7942;HTU21D;4016;50.758;7.150;2023-12-20T06:47:18;6.54;118.99
7942;HTU21D;4016;50.758;7.150;2023-12-20T06:52:19;6.64;118.99
7942;HTU21D;4016;50.758;7.150;2023-12-20T06:57:19;6.41;118.99
7942;HTU21D;4016;50.758;7.150;2023-12-20T07:02:20;6.50;118.99
7942;HTU21D;4016;50.758;7.150;2023-12-20T07:07:21;6.66;118.99
7942;HTU21D;4016;50.758;7.150;2023-12-20T07:12:23;6.61;118.99
7942;HTU21D;4016;50.758;7.150;2023-12-20T07:17:23;6.78;118.99
7942;HTU21D;4016;50.758;7.150;2023-12-20T07:22:24;6.52;118.99
7942;HTU21D;4016;50.758;7.150;2023-12-20T07:27:24;6.55;118.99
7942;HTU21D;4016;50.758;7.150;2023-12-20T07:32:24;6.61;118.99
7942;HTU21D;4016;50.758;7.150;2023-12-20T07:37:25;6.85;118.99
7942;HTU21D;4016;50.758;7.150;2023-12-20T07:42:25;6.67;118.99
7942;HTU21D;4016;50.758;7.150;2023-12-20T07:47:26;6.84;118.99
7942;HTU21D;4016;50.758;7.150;2023-12-20T07:52:26;6.73;118.99
7942;HTU21D;4016;50.758;7.150;2023-12-20T07:57:29;6.88;118.99
7942;HTU21D;4016;50.758;7.150;2023-12-20T08:02:30;6.84;118.99
7942;HTU21D;4016;50.758;7.150;2023-12-20T08:07:30;6.89;118.99
7942;HTU21D;4016;50.758;7.150;2023-12-20T08:12:30;6.88;118.99
7942;HTU21D;4016;50.758;7.150;2023-12-20T08:17:31;6.86;118.99
7942;HTU21D;4016;50.758;7.150;2023-12-20T08:22:31;6.81;118.99
7942;HTU21D;4016;50.758;7.150;2023-12-20T08:27:32;6.96;118.99
7942;HTU21D;4016;50.758;7.150;2023-12-20T08:32:32;7.01;118.99
7942;HTU21D;4016;50.758;7.150;2023-12-20T08:37:33;7.01;118.99
7942;HTU21D;4016;50.758;7.150;2023-12-20T08:42:33;7.03;118.99
7942;HTU21D;4016;50.758;7.150;2023-12-20T08:47:33;7.22;118.99
7942;HTU21D;4016;50.758;7.150;2023-12-20T08:52:34;7.15;118.99
7942;HTU21D;4016;50.758;7.150;2023-12-20T08:57:34;7.09;118.99
7942;HTU21D;4016;50.758;7.150;2023-12-20T09:02:34;7.38;118.99
7942;HTU21D;4016;50.758;7.150;2023-12-20T09:07:37;7.28;118.99
7942;HTU21D;4016;50.758;7.150;2023-12-20T09:12:38;7.41;118.99
7942;HTU21D;4016;50.758;7.150;2023-12-20T09:17:41;7.28;118.99
7942;HTU21D;4016;50.758;7.150;2023-12-20T09:22:41;7.26;118.99
7942;HTU21D;4016;50.758;7.150;2023-12-20T09:27:42;7.29;118.99
7942;HTU21D;4016;50.758;7.150;2023-12-20T09:32:43;7.35;118.99
7942;HTU21D;4016;50.758;7.150;2023-12-20T09:37:43;7.58;118.99
7942;HTU21D;4016;50.758;7.150;2023-12-20T09:42:56;7.46;118.99
7942;HTU21D;4016;50.758;7.150;2023-12-20T09:47:58;7.46;118.99
7942;HTU21D;4016;50.758;7.150;2023-12-20T09:53:00;7.45;118.99
7942;HTU21D;4016;50.758;7.150;2023-12-20T09:58:02;7.49;118.99
7942;HTU21D;4016;50.758;7.150;2023-12-20T10:03:03;7.42;118.99
7942;HTU21D;4016;50.758;7.150;2023-12-20T10:08:06;7.48;118.99
7942;HTU21D;4016;50.758;7.150;2023-12-20T10:13:11;7.60;118.99
7942;HTU21D;4016;50.758;7.150;2023-12-20T10:18:12;7.59;118.99
7942;HTU21D;4016;50.758;7.150;2023-12-20T10:23:13;7.67;118.99
7942;HTU21D;4016;50.758;7.150;2023-12-20T10:28:16;7.57;118.99
7942;HTU21D;4016;50.758;7.150;2023-12-20T10:33:27;7.64;118.99
7942;HTU21D;4016;50.758;7.150;2023-12-20T10:38:28;7.69;118.99
7942;HTU21D;4016;50.758;7.150;2023-12-20T10:43:30;7.67;118.99
7942;HTU21D;4016;50.758;7.150;2023-12-20T10:48:33;7.63;118.99
7942;HTU21D;4016;50.758;7.150;2023-12-20T10:53:35;7.63;118.99
7942;HTU21D;4016;50.758;7.150;2023-12-20T10:58:39;7.70;118.99
7942;HTU21D;4016;50.758;7.150;2023-12-20T11:03:49;7.76;118.99
7942;HTU21D;4016;50.758;7.150;2023-12-20T11:14:26;7.82;118.99
7942;HTU21D;4016;50.758;7.150;2023-12-20T11:19:27;7.75;118.99
7942;HTU21D;4016;50.758;7.150;2023-12-20T11:24:28;7.86;118.99
7942;HTU21D;4016;50.758;7.150;2023-12-20T11:29:36;7.91;118.99
7942;HTU21D;4016;50.758;7.150;2023-12-20T11:34:36;7.82;118.99
7942;HTU21D;4016;50.758;7.150;2023-12-20T11:39:37;7.92;118.99
7942;HTU21D;4016;50.758;7.150;2023-12-20T11:44:38;7.96;118.99
7942;HTU21D;4016;50.758;7.150;2023-12-20T11:49:38;8.01;118.99
7942;HTU21D;4016;50.758;7.150;2023-12-20T11:54:39;7.81;118.99
7942;HTU21D;4016;50.758;7.150;2023-12-20T11:59:39;8.02;118.99
7942;HTU21D;4016;50.758;7.150;2023-12-20T12:04:43;8.03;118.99
7942;HTU21D;4016;50.758;7.150;2023-12-20T12:09:44;8.11;118.99
7942;HTU21D;4016;50.758;7.150;2023-12-20T12:14:45;8.27;118.99
7942;HTU21D;4016;50.758;7.150;2023-12-20T12:19:45;8.21;118.99
7942;HTU21D;4016;50.758;7.150;2023-12-20T12:24:47;8.27;118.99
7942;HTU21D;4016;50.758;7.150;2023-12-20T12:30:01;8.33;118.99
7942;HTU21D;4016;50.758;7.150;2023-12-20T12:35:04;8.28;118.99
7942;HTU21D;4016;50.758;7.150;2023-12-20T12:40:10;8.28;118.99
7942;HTU21D;4016;50.758;7.150;2023-12-20T12:45:11;8.33;118.99
7942;HTU21D;4016;50.758;7.150;2023-12-20T12:50:12;8.20;118.99
7942;HTU21D;4016;50.758;7.150;2023-12-20T12:55:12;8.19;118.99
7942;HTU21D;4016;50.758;7.150;2023-12-20T13:00:13;8.18;118.99
7942;HTU21D;4016;50.758;7.150;2023-12-20T13:05:14;8.26;118.99
7942;HTU21D;4016;50.758;7.150;2023-12-20T13:10:14;8.23;118.99
7942;HTU21D;4016;50.758;7.150;2023-12-20T13:15:16;8.18;118.99
7942;HTU21D;4016;50.758;7.150;2023-12-20T13:20:17;8.12;118.99
7942;HTU21D;4016;50.758;7.150;2023-12-20T13:25:17;8.17;118.99
7942;HTU21D;4016;50.758;7.150;2023-12-20T13:30:18;8.21;118.99
7942;HTU21D;4016;50.758;7.150;2023-12-20T13:35:18;8.19;118.99
7942;HTU21D;4016;50.758;7.150;2023-12-20T13:40:20;8.03;118.99
7942;HTU21D;4016;50.758;7.150;2023-12-20T13:45:20;7.87;118.99
7942;HTU21D;4016;50.758;7.150;2023-12-20T13:50:21;7.77;118.99
7942;HTU21D;4016;50.758;7.150;2023-12-20T13:55:22;7.78;118.99
7942;HTU21D;4016;50.758;7.150;2023-12-20T14:00:25;7.69;118.99
7942;HTU21D;4016;50.758;7.150;2023-12-20T14:05:25;7.77;118.99
7942;HTU21D;4016;50.758;7.150;2023-12-20T14:10:27;7.76;118.99
7942;HTU21D;4016;50.758;7.150;2023-12-20T14:15:28;7.64;118.99
7942;HTU21D;4016;50.758;7.150;2023-12-20T14:20:28;7.70;118.99
7942;HTU21D;4016;50.758;7.150;2023-12-20T14:25:29;7.79;118.99
7942;HTU21D;4016;50.758;7.150;2023-12-20T14:30:31;7.74;118.99
7942;HTU21D;4016;50.758;7.150;2023-12-20T14:35:32;7.64;118.99
7942;HTU21D;4016;50.758;7.150;2023-12-20T14:40:33;7.71;118.99
7942;HTU21D;4016;50.758;7.150;2023-12-20T14:45:33;7.68;118.99
7942;HTU21D;4016;50.758;7.150;2023-12-20T14:50:33;7.60;118.99
7942;HTU21D;4016;50.758;7.150;2023-12-20T14:55:34;7.76;118.99
7942;HTU21D;4016;50.758;7.150;2023-12-20T15:00:35;7.67;118.99
7942;HTU21D;4016;50.758;7.150;2023-12-20T15:05:35;7.65;118.99
7942;HTU21D;4016;50.758;7.150;2023-12-20T15:10:36;7.69;118.99
7942;HTU21D;4016;50.758;7.150;2023-12-20T15:15:36;7.79;118.99
7942;HTU21D;4016;50.758;7.150;2023-12-20T15:20:37;7.68;118.99
7942;HTU21D;4016;50.758;7.150;2023-12-20T15:25:38;7.88;118.99
7942;HTU21D;4016;50.758;7.150;2023-12-20T15:30:38;7.74;118.99
7942;HTU21D;4016;50.758;7.150;2023-12-20T15:35:39;7.86;118.99
7942;HTU21D;4016;50.758;7.150;2023-12-20T15:40:39;7.78;118.99
7942;HTU21D;4016;50.758;7.150;2023-12-20T15:45:39;7.77;118.99
7942;HTU21D;4016;50.758;7.150;2023-12-20T15:50:40;7.78;118.99
7942;HTU21D;4016;50.758;7.150;2023-12-20T15:55:40;7.78;118.99
7942;HTU21D;4016;50.758;7.150;2023-12-20T16:00:41;7.83;118.99
7942;HTU21D;4016;50.758;7.150;2023-12-20T16:05:42;7.75;118.99
7942;HTU21D;4016;50.758;7.150;2023-12-20T16:10:42;7.98;118.99
7942;HTU21D;4016;50.758;7.150;2023-12-20T16:15:43;7.74;118.99
7942;HTU21D;4016;50.758;7.150;2023-12-20T16:20:43;7.87;118.99
7942;HTU21D;4016;50.758;7.150;2023-12-20T16:25:43;7.79;118.99
7942;HTU21D;4016;50.758;7.150;2023-12-20T16:30:44;7.97;118.99
7942;HTU21D;4016;50.758;7.150;2023-12-20T16:35:44;7.86;118.99
7942;HTU21D;4016;50.758;7.150;2023-12-20T16:40:44;8.00;118.99
7942;HTU21D;4016;50.758;7.150;2023-12-20T16:45:45;7.97;118.99
7942;HTU21D;4016;50.758;7.150;2023-12-20T16:50:46;7.92;118.99
7942;HTU21D;4016;50.758;7.150;2023-12-20T16:55:46;7.82;118.99
7942;HTU21D;4016;50.758;7.150;2023-12-20T17:00:47;7.89;118.99
7942;HTU21D;4016;50.758;7.150;2023-12-20T17:05:47;7.83;118.99
7942;HTU21D;4016;50.758;7.150;2023-12-20T17:10:48;7.89;118.99
7942;HTU21D;4016;50.758;7.150;2023-12-20T17:15:48;8.01;118.99
7942;HTU21D;4016;50.758;7.150;2023-12-20T17:20:48;7.86;118.99
7942;HTU21D;4016;50.758;7.150;2023-12-20T17:25:49;7.86;118.99
7942;HTU21D;4016;50.758;7.150;2023-12-20T17:30:50;7.92;118.99
7942;HTU21D;4016;50.758;7.150;2023-12-20T17:35:51;7.82;118.99
7942;HTU21D;4016;50.758;7.150;2023-12-20T17:40:51;8.09;118.99
7942;HTU21D;4016;50.758;7.150;2023-12-20T17:45:51;7.97;118.99
7942;HTU21D;4016;50.758;7.150;2023-12-20T17:50:52;7.93;118.99
7942;HTU21D;4016;50.758;7.150;2023-12-20T17:55:52;7.94;118.99
7942;HTU21D;4016;50.758;7.150;2023-12-20T18:00:53;7.96;118.99
7942;HTU21D;4016;50.758;7.150;2023-12-20T18:05:53;7.97;118.99
7942;HTU21D;4016;50.758;7.150;2023-12-20T18:10:53;8.08;118.99
7942;HTU21D;4016;50.758;7.150;2023-12-20T18:15:54;8.08;118.99
7942;HTU21D;4016;50.758;7.150;2023-12-20T18:20:54;8.12;118.99
7942;HTU21D;4016;50.758;7.150;2023-12-20T18:25:55;8.13;118.99
7942;HTU21D;4016;50.758;7.150;2023-12-20T18:30:55;8.15;118.99
7942;HTU21D;4016;50.758;7.150;2023-12-20T18:35:56;8.22;118.99
7942;HTU21D;4016;50.758;7.150;2023-12-20T18:40:56;8.26;118.99
7942;HTU21D;4016;50.758;7.150;2023-12-20T18:45:57;8.24;118.99
7942;HTU21D;4016;50.758;7.150;2023-12-20T18:50:58;8.20;118.99
7942;HTU21D;4016;50.758;7.150;2023-12-20T18:55:58;8.28;118.99
7942;HTU21D;4016;50.758;7.150;2023-12-20T19:00:58;8.29;118.99
7942;HTU21D;4016;50.758;7.150;2023-12-20T19:06:00;8.32;118.99
7942;HTU21D;4016;50.758;7.150;2023-12-20T19:11:03;8.33;118.99
7942;HTU21D;4016;50.758;7.150;2023-12-20T19:16:03;8.31;118.99
7942;HTU21D;4016;50.758;7.150;2023-12-20T19:21:04;8.46;118.99
7942;HTU21D;4016;50.758;7.150;2023-12-20T19:26:09;8.52;118.99
7942;HTU21D;4016;50.758;7.150;2023-12-20T19:31:09;8.55;118.99
7942;HTU21D;4016;50.758;7.150;2023-12-20T19:36:11;8.51;118.99
7942;HTU21D;4016;50.758;7.150;2023-12-20T19:41:12;8.46;118.99
7942;HTU21D;4016;50.758;7.150;2023-12-20T19:46:12;8.50;118.99
7942;HTU21D;4016;50.758;7.150;2023-12-20T19:51:13;8.52;118.99
7942;HTU21D;4016;50.758;7.150;2023-12-20T19:56:15;8.78;118.99
7942;HTU21D;4016;50.758;7.150;2023-12-20T20:01:15;8.75;118.99
7942;HTU21D;4016;50.758;7.150;2023-12-20T20:06:15;8.65;118.99
7942;HTU21D;4016;50.758;7.150;2023-12-20T20:11:16;8.75;118.99
7942;HTU21D;4016;50.758;7.150;2023-12-20T20:16:16;8.77;118.99
7942;HTU21D;4016;50.758;7.150;2023-12-20T20:21:16;8.74;118.99
7942;HTU21D;4016;50.758;7.150;2023-12-20T20:26:17;8.81;118.99
7942;HTU21D;4016;50.758;7.150;2023-12-20T20:31:17;8.83;118.99
7942;HTU21D;4016;50.758;7.150;2023-12-20T20:36:17;8.95;118.99
7942;HTU21D;4016;50.758;7.150;2023-12-20T20:41:18;8.89;118.99
7942;HTU21D;4016;50.758;7.150;2023-12-20T20:46:18;9.00;118.99
7942;HTU21D;4016;50.758;7.150;2023-12-20T20:51:20;9.09;118.99
7942;HTU21D;4016;50.758;7.150;2023-12-20T20:56:20;9.16;118.99
7942;HTU21D;4016;50.758;7.150;2023-12-20T21:01:21;9.03;118.99
7942;HTU21D;4016;50.758;7.150;2023-12-20T21:06:21;9.04;118.99
7942;HTU21D;4016;50.758;7.150;2023-12-20T21:11:22;9.23;118.99
7942;HTU21D;4016;50.758;7.150;2023-12-20T21:16:22;9.24;118.99
7942;HTU21D;4016;50.758;7.150;2023-12-20T21:21:24;9.30;118.99
7942;HTU21D;4016;50.758;7.150;2023-12-20T21:26:24;9.26;118.99
7942;HTU21D;4016;50.758;7.150;2023-12-20T21:31:24;9.21;118.99
7942;HTU21D;4016;50.758;7.150;2023-12-20T21:36:25;9.45;118.99
7942;HTU21D;4016;50.758;7.150;2023-12-20T21:41:25;9.38;118.99
7942;HTU21D;4016;50.758;7.150;2023-12-20T21:46:26;9.25;118.99
7942;HTU21D;4016;50.758;7.150;2023-12-20T21:51:26;9.41;118.99
7942;HTU21D;4016;50.758;7.150;2023-12-20T21:56:27;9.48;118.99
7942;HTU21D;4016;50.758;7.150;2023-12-20T22:01:27;9.44;118.99
7942;HTU21D;4016;50.758;7.150;2023-12-20T22:06:27;9.24;118.99
7942;HTU21D;4016;50.758;7.150;2023-12-20T22:11:28;9.25;118.99
7942;HTU21D;4016;50.758;7.150;2023-12-20T22:16:29;9.31;118.99
7942;HTU21D;4016;50.758;7.150;2023-12-20T22:21:29;9.46;118.99
7942;HTU21D;4016;50.758;7.150;2023-12-20T22:26:30;9.36;118.99
7942;HTU21D;4016;50.758;7.150;2023-12-20T22:31:30;9.49;118.99
7942;HTU21D;4016;50.758;7.150;2023-12-20T22:36:31;9.37;118.99
7942;HTU21D;4016;50.758;7.150;2023-12-20T22:41:31;9.44;118.99
7942;HTU21D;4016;50.758;7.150;2023-12-20T22:46:32;9.37;118.99
7942;HTU21D;4016;50.758;7.150;2023-12-20T22:51:33;9.42;118.99
7942;HTU21D;4016;50.758;7.150;2023-12-20T22:56:34;9.45;118.99
7942;HTU21D;4016;50.758;7.150;2023-12-20T23:01:34;9.51;118.99
7942;HTU21D;4016;50.758;7.150;2023-12-20T23:06:34;9.36;118.99
7942;HTU21D;4016;50.758;7.150;2023-12-20T23:11:35;9.49;118.99
7942;HTU21D;4016;50.758;7.150;2023-12-20T23:16:36;9.15;118.99
7942;HTU21D;4016;50.758;7.150;2023-12-20T23:21:37;9.02;118.99
7942;HTU21D;4016;50.758;7.150;2023-12-20T23:26:38;9.18;118.99
7942;HTU21D;4016;50.758;7.150;2023-12-20T23:31:38;9.06;118.99
7942;HTU21D;4016;50.758;7.150;2023-12-20T23:36:38;8.83;118.99
7942;HTU21D;4016;50.758;7.150;2023-12-20T23:41:39;8.92;118.99
7942;HTU21D;4016;50.758;7.150;2023-12-20T23:46:39;8.85;118.99
7942;HTU21D;4016;50.758;7.150;2023-12-20T23:51:39;8.86;118.99
7942;HTU21D;4016;50.758;7.150;2023-12-20T23:56:41;8.83;118.99
